Time;durP1;ratioP1;P1;durP2;ratioP2;P2;SDS_P1;SDS_P2;PMS_P1;PMS_P2;Temp;Humidity;BMP_temperature;BMP_pressure;BME280_temperature;BME280_humidity;BME280_pressure;Samples;Min_cycle;Max_cycle;Signal;HPM_P1;HPM_P2
2023/09/16 00:01:21;;;;;;;11.98;8.32;;;;;;;18.07;68.76;101299.63;5114356;28;20020;-58
2023/09/16 00:03:47;;;;;;;15.90;8.63;;;;;;;18.05;69.18;101304.13;5115829;28;20024;-59
2023/09/16 00:06:12;;;;;;;13.77;8.45;;;;;;;17.99;69.56;101312.25;5114543;28;20040;-60
2023/09/16 00:08:38;;;;;;;14.75;8.35;;;;;;;18.01;69.56;101303.28;5115561;28;20475;-59
2023/09/16 00:11:04;;;;;;;12.25;7.90;;;;;;;17.99;70.00;101304.22;5115565;28;20031;-60
2023/09/16 00:13:29;;;;;;;10.32;8.13;;;;;;;17.91;69.89;101307.00;5115468;28;20061;-60
2023/09/16 00:15:54;;;;;;;12.98;8.07;;;;;;;18.02;70.19;101304.16;5115542;28;20019;-60
2023/09/16 00:18:20;;;;;;;10.60;7.78;;;;;;;17.98;69.69;101305.09;5115405;28;20024;-60
2023/09/16 00:20:49;;;;;;;11.93;8.10;;;;;;;18.00;69.74;101308.66;5115440;28;20457;-59
2023/09/16 00:23:18;;;;;;;10.30;7.47;;;;;;;17.91;69.78;101304.31;5115425;28;20015;-59
2023/09/16 00:25:45;;;;;;;11.40;7.97;;;;;;;17.71;70.17;101311.63;5115336;28;20066;-59
2023/09/16 00:28:11;;;;;;;15.02;8.45;;;;;;;17.62;70.85;101317.97;5115561;28;20392;-60
2023/09/16 00:30:40;;;;;;;14.10;8.07;;;;;;;17.55;71.45;101313.59;5115163;28;20153;-60
2023/09/16 00:33:05;;;;;;;11.45;7.55;;;;;;;17.50;71.28;101318.09;5115192;28;20076;-59
2023/09/16 00:35:31;;;;;;;10.75;8.05;;;;;;;17.42;71.44;101317.28;5115074;28;20031;-59
2023/09/16 00:37:56;;;;;;;14.75;8.02;;;;;;;17.38;71.61;101318.22;5115441;28;20381;-60
2023/09/16 00:40:22;;;;;;;10.73;8.05;;;;;;;17.33;72.04;101320.94;5115074;28;20024;-60
2023/09/16 00:42:48;;;;;;;14.52;7.85;;;;;;;17.21;73.19;101311.25;5115213;28;20057;-60
2023/09/16 00:45:14;;;;;;;14.68;8.85;;;;;;;17.14;73.54;101311.34;5115078;28;20495;-59
2023/09/16 00:47:41;;;;;;;12.93;9.10;;;;;;;17.11;73.84;101309.56;5114857;28;20028;-59
2023/09/16 00:50:09;;;;;;;15.75;8.95;;;;;;;17.21;73.11;101313.03;5115090;28;20377;-60
2023/09/16 00:52:37;;;;;;;13.30;8.70;;;;;;;17.22;72.93;101301.47;5115061;28;20034;-60
2023/09/16 00:55:03;;;;;;;11.68;8.25;;;;;;;17.22;72.92;101305.03;5114601;28;20481;-60
2023/09/16 00:57:30;;;;;;;12.25;8.15;;;;;;;17.19;72.72;101310.38;5115028;28;20100;-59
2023/09/16 00:59:56;;;;;;;11.50;8.13;;;;;;;17.25;72.80;101298.75;5114765;28;20027;-60
2023/09/16 01:02:22;;;;;;;12.23;8.27;;;;;;;17.27;72.23;101297.84;5114573;28;20407;-59
2023/09/16 01:04:49;;;;;;;10.82;8.27;;;;;;;17.30;71.91;101288.94;5114580;28;20038;-59
2023/09/16 01:07:15;;;;;;;10.80;7.82;;;;;;;17.23;71.92;101293.44;5114517;28;20062;-59
2023/09/16 01:09:41;;;;;;;11.38;7.93;;;;;;;17.21;71.65;101287.19;5114362;28;20469;-59
2023/09/16 01:12:10;;;;;;;12.10;8.05;;;;;;;17.19;72.25;101291.69;5114677;28;20068;-59
2023/09/16 01:14:36;;;;;;;12.23;7.75;;;;;;;17.20;72.20;101280.09;5114246;28;20027;-59
2023/09/16 01:17:02;;;;;;;10.25;7.97;;;;;;;17.18;72.54;101287.25;5114439;28;20105;-60
2023/09/16 01:19:42;;;;;;;11.63;8.20;;;;;;;17.18;71.92;101283.69;5114489;28;20081;-60
2023/09/16 01:22:09;;;;;;;9.50;7.55;;;;;;;17.09;72.41;101282.00;5114252;28;20028;-59
2023/09/16 01:24:34;;;;;;;13.98;7.60;;;;;;;17.13;72.16;101275.75;5114179;28;20047;-60
2023/09/16 01:27:00;;;;;;;11.45;8.05;;;;;;;17.06;72.77;101279.34;5114213;28;20160;-59
2023/09/16 01:29:26;;;;;;;13.48;8.07;;;;;;;17.06;72.85;101279.34;5113364;28;20516;-60
2023/09/16 01:31:54;;;;;;;11.80;7.57;;;;;;;16.99;72.29;101280.28;5114116;28;20023;-59
2023/09/16 01:34:23;;;;;;;16.40;7.90;;;;;;;16.96;71.98;101281.22;5114201;28;20031;-59
2023/09/16 01:36:52;;;;;;;9.13;7.15;;;;;;;16.92;72.66;101290.16;5113999;28;20023;-60
2023/09/16 01:39:23;;;;;;;9.60;7.28;;;;;;;16.85;73.25;101282.22;5113871;28;20520;-60
2023/09/16 01:41:53;;;;;;;9.15;7.07;;;;;;;16.82;73.40;101290.22;5113911;28;20039;-59
2023/09/16 01:44:18;;;;;;;9.65;8.05;;;;;;;16.77;74.12;101284.94;5114031;28;20029;-60
2023/09/16 01:46:44;;;;;;;11.30;7.57;;;;;;;16.72;74.21;101278.72;5113736;28;20022;-60
2023/09/16 01:49:09;;;;;;;11.02;7.32;;;;;;;16.71;74.40;101277.84;5112545;28;20461;-60
2023/09/16 01:51:35;;;;;;;10.18;8.15;;;;;;;16.67;74.64;101277.88;5113696;28;20114;-59
2023/09/16 01:54:00;;;;;;;12.02;7.85;;;;;;;16.68;74.82;101282.31;5113881;28;20073;-60
2023/09/16 01:56:26;;;;;;;9.82;7.85;;;;;;;16.68;74.09;101282.31;5113669;28;20028;-59
2023/09/16 01:58:51;;;;;;;9.80;7.43;;;;;;;16.71;73.72;101274.28;5113706;28;20042;-59
2023/09/16 02:01:17;;;;;;;9.05;7.25;;;;;;;16.69;74.08;101273.38;5113590;28;20093;-59
2023/09/16 02:03:43;;;;;;;9.52;7.22;;;;;;;16.65;74.30;101264.53;5113717;28;20024;-59
2023/09/16 02:06:08;;;;;;;9.23;7.60;;;;;;;16.67;73.90;101272.53;5113605;28;20066;-60
2023/09/16 02:08:34;;;;;;;10.30;7.60;;;;;;;16.64;74.00;101273.44;5113668;28;20506;-60
2023/09/16 02:11:01;;;;;;;9.43;7.53;;;;;;;16.58;73.94;101270.81;5113483;28;20039;-59
2023/09/16 02:13:26;;;;;;;9.88;7.75;;;;;;;16.55;74.29;101268.16;5113447;28;20111;-60
2023/09/16 02:15:52;;;;;;;10.68;7.10;;;;;;;16.55;74.00;101267.28;5113305;28;20102;-59
2023/09/16 02:18:17;;;;;;;9.95;7.25;;;;;;;16.59;73.65;101274.38;5112251;28;20358;-60
2023/09/16 02:20:43;;;;;;;9.90;7.68;;;;;;;16.59;73.87;101269.91;5113351;28;20066;-60
2023/09/16 02:23:08;;;;;;;10.63;7.20;;;;;;;16.55;73.81;101269.94;5113415;28;20051;-60
2023/09/16 02:25:34;;;;;;;10.02;7.90;;;;;;;16.46;74.60;101266.44;5113338;28;20366;-59
2023/09/16 02:27:59;;;;;;;9.55;7.03;;;;;;;16.46;74.18;101268.22;5113622;28;20023;-60
2023/09/16 02:30:25;;;;;;;11.90;8.00;;;;;;;16.43;75.19;101261.13;5113244;28;20454;-59
2023/09/16 02:32:51;;;;;;;9.30;7.78;;;;;;;16.43;75.32;101265.56;5113327;28;20027;-60
2023/09/16 02:35:16;;;;;;;10.73;7.53;;;;;;;16.43;75.01;101266.44;5113296;28;20491;-59
2023/09/16 02:37:42;;;;;;;10.15;7.35;;;;;;;16.40;74.48;101257.59;5113517;28;20032;-60
2023/09/16 02:40:07;;;;;;;9.48;7.10;;;;;;;16.39;74.63;101258.50;5113323;28;20387;-60
2023/09/16 02:42:33;;;;;;;11.65;8.35;;;;;;;16.36;76.20;101261.16;5116372;28;20072;-58
2023/09/16 02:44:59;;;;;;;9.85;6.95;;;;;;;16.35;75.20;101270.06;5117198;28;20582;-59
2023/09/16 02:47:25;;;;;;;9.27;6.57;;;;;;;16.34;74.96;101257.63;5117281;28;20027;-59
2023/09/16 02:49:50;;;;;;;8.85;7.03;;;;;;;16.39;75.27;101262.03;5116056;28;20028;-59
2023/09/16 02:52:15;;;;;;;9.07;7.38;;;;;;;16.39;75.56;101261.16;5116056;28;20024;-60
2023/09/16 02:54:42;;;;;;;9.32;7.03;;;;;;;16.32;76.07;101264.78;5117236;28;20024;-59
2023/09/16 02:57:07;;;;;;;10.50;7.25;;;;;;;16.28;75.95;101270.13;5116713;28;20039;-58
2023/09/16 02:59:32;;;;;;;9.15;6.82;;;;;;;16.21;76.13;101268.38;5117331;28;20511;-59
2023/09/16 03:01:58;;;;;;;8.20;6.28;;;;;;;16.20;75.64;101273.72;5116854;28;20112;-60
2023/09/16 03:04:23;;;;;;;10.43;7.38;;;;;;;16.18;76.54;101271.03;5116958;28;20020;-60
2023/09/16 03:06:48;;;;;;;11.82;8.40;;;;;;;16.13;77.40;101266.66;5115704;28;20118;-59
2023/09/16 03:09:14;;;;;;;11.55;7.97;;;;;;;16.11;77.66;101266.66;5117045;28;20027;-59
2023/09/16 03:11:40;;;;;;;12.52;7.55;;;;;;;16.09;76.99;101260.44;5117040;28;20116;-58
2023/09/16 03:14:05;;;;;;;10.23;7.38;;;;;;;16.09;76.60;101255.09;5115819;28;20480;-59
2023/09/16 03:16:31;;;;;;;9.05;7.47;;;;;;;16.17;76.56;101249.75;5116535;28;20528;-61
2023/09/16 03:18:57;;;;;;;9.13;7.05;;;;;;;16.18;76.16;101251.50;5116936;28;20020;-60
2023/09/16 03:21:25;;;;;;;7.85;6.72;;;;;;;16.15;75.96;101248.88;5116618;28;20035;-58
2023/09/16 03:23:50;;;;;;;9.50;7.40;;;;;;;16.12;75.74;101254.22;5116350;28;20058;-60
2023/09/16 03:26:16;;;;;;;11.45;7.40;;;;;;;16.11;76.24;101248.00;5116792;28;20031;-60
2023/09/16 03:28:44;;;;;;;9.98;7.63;;;;;;;16.04;76.19;101246.25;5116360;28;20024;-60
2023/09/16 03:31:10;;;;;;;8.52;7.00;;;;;;;15.93;76.54;101249.00;5116489;28;20556;-60
2023/09/16 03:33:37;;;;;;;11.68;6.45;;;;;;;15.83;77.12;101252.56;5116409;28;20063;-59
2023/09/16 03:36:04;;;;;;;10.80;6.93;;;;;;;15.75;77.53;101246.38;5116535;28;20055;-60
2023/09/16 03:38:31;;;;;;;10.10;7.05;;;;;;;15.71;77.85;101249.94;5116197;28;20449;-60
2023/09/16 03:40:57;;;;;;;13.77;7.60;;;;;;;15.68;78.18;101242.88;5116156;28;20393;-60
2023/09/16 03:43:23;;;;;;;10.60;7.32;;;;;;;15.65;78.12;101239.31;5116231;28;20096;-60
2023/09/16 03:45:48;;;;;;;9.63;7.13;;;;;;;15.60;78.19;101243.75;5116082;28;20059;-60
2023/09/16 03:48:14;;;;;;;10.13;7.20;;;;;;;15.64;77.87;101242.84;5116171;28;20039;-59
2023/09/16 03:50:39;;;;;;;10.93;6.90;;;;;;;15.68;78.09;101244.66;5116030;28;20057;-60
2023/09/16 03:53:05;;;;;;;10.07;7.30;;;;;;;15.72;77.85;101244.63;5115491;28;20020;-60
2023/09/16 03:55:31;;;;;;;9.43;7.10;;;;;;;15.77;77.81;101233.97;5116096;28;20107;-59
2023/09/16 03:57:56;;;;;;;8.35;6.90;;;;;;;15.81;77.79;101232.16;5115910;28;20051;-58
2023/09/16 04:00:22;;;;;;;11.98;6.97;;;;;;;15.82;77.19;101233.94;5115778;28;20035;-59
2023/09/16 04:02:47;;;;;;;7.50;6.45;;;;;;;15.81;76.81;101235.72;5115879;28;20055;-60
2023/09/16 04:05:13;;;;;;;8.75;7.07;;;;;;;15.82;77.16;101237.47;5115843;28;20059;-60
2023/09/16 04:07:39;;;;;;;8.05;6.57;;;;;;;15.88;76.95;101242.78;5116044;28;20032;-60
2023/09/16 04:10:06;;;;;;;10.02;7.63;;;;;;;15.86;76.98;101239.25;5115611;28;20028;-59
2023/09/16 04:12:32;;;;;;;11.15;7.13;;;;;;;15.88;76.03;101229.44;5114374;28;20031;-59
2023/09/16 04:14:58;;;;;;;10.80;6.75;;;;;;;15.85;75.94;101232.16;5115644;28;20031;-59
2023/09/16 04:17:23;;;;;;;9.40;6.68;;;;;;;15.80;75.57;101230.38;5115580;28;20481;-59
2023/09/16 04:19:49;;;;;;;9.15;6.50;;;;;;;15.73;75.94;101235.75;5115530;28;20111;-60
2023/09/16 04:22:14;;;;;;;9.70;6.45;;;;;;;15.70;76.23;101235.75;5115563;28;20059;-59
2023/09/16 04:24:39;;;;;;;9.00;6.32;;;;;;;15.60;76.63;101235.78;5115370;28;20397;-59
2023/09/16 04:27:05;;;;;;;10.00;6.43;;;;;;;15.49;77.29;101238.44;5115328;28;20027;-59
2023/09/16 04:29:31;;;;;;;10.55;7.30;;;;;;;15.42;77.61;101236.72;5114906;28;20044;-59
2023/09/16 04:31:56;;;;;;;8.80;6.30;;;;;;;15.38;78.05;101241.16;5115609;28;20039;-60
2023/09/16 04:34:22;;;;;;;9.07;5.75;;;;;;;15.34;78.34;101241.19;5115321;28;20024;-60
2023/09/16 04:36:48;;;;;;;7.40;5.68;;;;;;;15.35;78.72;101232.28;5115402;28;20024;-59
2023/09/16 04:39:15;;;;;;;9.52;5.75;;;;;;;15.37;78.33;101228.72;5114944;27;20110;-60
2023/09/16 04:41:40;;;;;;;8.52;5.55;;;;;;;15.41;77.96;101226.94;5115285;28;20080;-59
2023/09/16 04:44:08;;;;;;;7.70;5.80;;;;;;;15.37;78.13;101231.38;5115223;28;20106;-58
2023/09/16 04:46:33;;;;;;;9.25;6.13;;;;;;;15.37;77.89;101231.38;5114878;28;20058;-59
2023/09/16 04:48:59;;;;;;;7.10;5.93;;;;;;;15.43;77.69;101230.50;5115197;28;20027;-60
2023/09/16 04:51:24;;;;;;;9.25;6.15;;;;;;;15.49;77.32;101227.81;5114843;28;20495;-60
2023/09/16 04:53:50;;;;;;;8.98;6.88;;;;;;;15.41;77.80;101227.81;5114889;28;20048;-58
2023/09/16 04:56:15;;;;;;;10.75;6.93;;;;;;;15.42;78.04;101226.06;5114666;28;20119;-60
2023/09/16 04:58:41;;;;;;;9.35;6.70;;;;;;;15.41;77.25;101226.94;5113556;28;20024;-59
2023/09/16 05:01:07;;;;;;;11.40;7.68;;;;;;;15.37;78.03;101234.03;5114757;28;20469;-60
2023/09/16 05:03:32;;;;;;;10.02;7.10;;;;;;;15.30;78.04;101234.97;5113915;28;20031;-60
2023/09/16 05:05:58;;;;;;;13.70;7.45;;;;;;;15.27;78.27;101225.19;5114509;28;20023;-59
2023/09/16 05:08:24;;;;;;;7.85;5.90;;;;;;;15.15;78.27;101235.00;5114604;28;20023;-60
2023/09/16 05:10:55;;;;;;;8.40;6.07;;;;;;;15.02;79.01;101229.69;5114510;27;20103;-59
2023/09/16 05:13:21;;;;;;;8.77;6.45;;;;;;;14.90;79.82;101239.44;5114061;28;20027;-60
2023/09/16 05:15:49;;;;;;;9.07;6.38;;;;;;;14.88;80.31;101236.81;5113924;28;20027;-59
2023/09/16 05:18:15;;;;;;;7.20;6.38;;;;;;;14.95;79.92;101229.72;5113714;28;20028;-60
2023/09/16 05:20:41;;;;;;;8.35;6.28;;;;;;;15.02;79.64;101234.13;5113714;28;20019;-60
2023/09/16 05:23:06;;;;;;;10.65;6.43;;;;;;;15.04;79.52;101237.69;5112435;28;20485;-58
2023/09/16 05:25:31;;;;;;;9.40;6.57;;;;;;;15.12;79.41;101238.56;5113516;28;20027;-58
2023/09/16 05:27:57;;;;;;;9.23;6.80;;;;;;;15.16;79.31;101242.06;5113700;28;20473;-60
2023/09/16 05:30:22;;;;;;;8.75;6.60;;;;;;;15.20;78.85;101236.78;5113422;28;20048;-60
2023/09/16 05:32:48;;;;;;;9.48;6.70;;;;;;;15.27;78.31;101235.84;5113601;28;20115;-59
2023/09/16 05:35:13;;;;;;;9.85;6.60;;;;;;;15.27;78.29;101233.19;5113637;28;20504;-60
2023/09/16 05:37:38;;;;;;;9.38;6.32;;;;;;;15.27;78.40;101240.28;5113763;28;20027;-60
2023/09/16 05:40:04;;;;;;;9.85;7.35;;;;;;;15.28;78.51;101232.28;5113494;28;20092;-60
2023/09/16 05:42:30;;;;;;;10.27;7.88;;;;;;;15.33;78.97;101228.72;5113612;28;20035;-58
2023/09/16 05:44:55;;;;;;;11.73;7.57;;;;;;;15.36;78.97;101234.06;5113577;28;20043;-60
2023/09/16 05:47:21;;;;;;;10.25;7.28;;;;;;;15.41;79.53;101229.59;5113397;28;20107;-60
2023/09/16 05:49:46;;;;;;;10.55;7.80;;;;;;;15.50;79.53;101229.56;5113390;28;20028;-59
2023/09/16 05:52:11;;;;;;;10.88;7.50;;;;;;;15.59;79.53;101239.31;5113299;28;20023;-59
2023/09/16 05:54:37;;;;;;;9.65;7.25;;;;;;;15.58;79.53;101235.75;5113433;28;20030;-59
2023/09/16 05:57:02;;;;;;;13.57;7.50;;;;;;;15.62;80.01;101236.63;5113215;28;20469;-60
2023/09/16 05:59:28;;;;;;;10.73;7.63;;;;;;;15.72;79.86;101227.75;5113347;28;20153;-59
2023/09/16 06:01:53;;;;;;;10.27;8.20;;;;;;;15.78;80.27;101233.06;5111865;28;20028;-59
2023/09/16 06:04:19;;;;;;;11.82;8.25;;;;;;;15.95;80.15;101235.66;5113369;28;20379;-61
2023/09/16 06:06:46;;;;;;;11.60;7.63;;;;;;;16.10;79.85;101245.31;5113081;28;20461;-60
2023/09/16 06:09:12;;;;;;;11.27;7.70;;;;;;;16.27;79.27;101240.78;5112982;28;20026;-59
2023/09/16 06:11:37;;;;;;;10.40;7.80;;;;;;;16.44;78.96;101244.22;5113381;28;20112;-60
2023/09/16 06:14:03;;;;;;;13.98;8.20;;;;;;;16.63;78.72;101244.97;5113124;28;20333;-60
2023/09/16 06:16:29;;;;;;;11.63;9.30;;;;;;;16.80;78.70;101244.88;5112765;28;20430;-60
2023/09/16 06:18:54;;;;;;;16.23;9.45;;;;;;;16.93;78.95;101234.97;5112996;28;20110;-61
2023/09/16 06:21:19;;;;;;;17.77;12.60;;;;;;;17.06;78.91;101246.44;5113033;28;20023;-61
2023/09/16 06:23:45;;;;;;;13.15;10.10;;;;;;;17.06;79.07;101243.75;5112902;28;20492;-60
2023/09/16 06:26:11;;;;;;;16.48;10.52;;;;;;;17.14;79.54;101250.78;5111550;28;20123;-59
2023/09/16 06:28:37;;;;;;;13.38;9.88;;;;;;;17.27;79.96;101249.78;5112968;28;20024;-61
2023/09/16 06:31:03;;;;;;;13.27;10.27;;;;;;;17.44;79.32;101248.72;5112597;28;20048;-61
2023/09/16 06:33:29;;;;;;;13.02;10.35;;;;;;;17.68;78.81;101247.53;5112831;28;20069;-60
2023/09/16 06:35:54;;;;;;;14.00;10.55;;;;;;;17.87;78.45;101246.44;5113034;28;20040;-61
2023/09/16 06:38:19;;;;;;;17.17;10.80;;;;;;;18.08;77.87;101253.28;5112886;28;20334;-60
2023/09/16 06:40:45;;;;;;;16.05;11.57;;;;;;;18.19;78.28;101254.00;5112611;28;20121;-60
2023/09/16 06:43:11;;;;;;;16.50;11.32;;;;;;;18.44;77.17;101253.66;5113079;28;20358;-59
2023/09/16 06:45:36;;;;;;;18.25;11.40;;;;;;;18.62;76.44;101253.38;5111428;28;20117;-59
2023/09/16 06:48:02;;;;;;;15.85;11.38;;;;;;;18.80;76.27;101254.00;5112857;28;20380;-59
2023/09/16 06:50:27;;;;;;;16.35;11.15;;;;;;;18.98;75.21;101261.75;5112953;28;20026;-59
2023/09/16 06:52:52;;;;;;;17.35;11.90;;;;;;;19.13;74.88;101263.25;5112786;28;20026;-60
2023/09/16 06:55:18;;;;;;;15.35;11.40;;;;;;;19.31;74.77;101262.91;5112560;28;20019;-59
2023/09/16 06:57:44;;;;;;;15.95;10.95;;;;;;;19.51;74.58;101259.88;5112717;28;20084;-59
2023/09/16 07:00:10;;;;;;;16.92;11.38;;;;;;;19.67;74.36;101257.81;5111442;28;20058;-59
2023/09/16 07:02:36;;;;;;;16.63;10.43;;;;;;;19.73;73.77;101252.31;5112533;28;20047;-61
2023/09/16 07:05:02;;;;;;;15.02;10.65;;;;;;;19.86;74.77;101248.44;5112949;28;20039;-59
2023/09/16 07:07:28;;;;;;;16.05;10.63;;;;;;;19.99;73.54;101247.25;5112613;28;20027;-59
2023/09/16 07:09:57;;;;;;;16.52;11.13;;;;;;;20.15;72.46;101246.94;5112849;28;20027;-60
2023/09/16 07:12:24;;;;;;;14.38;10.13;;;;;;;20.32;71.95;101251.94;5112545;28;20042;-60
2023/09/16 07:14:50;;;;;;;14.65;10.80;;;;;;;20.30;71.40;101245.69;5112346;28;20023;-59
2023/09/16 07:17:16;;;;;;;16.00;10.65;;;;;;;20.42;71.05;101245.41;5112476;28;20111;-60
2023/09/16 07:19:41;;;;;;;14.25;10.43;;;;;;;20.60;70.62;101249.50;5112596;28;20051;-59
2023/09/16 07:22:07;;;;;;;14.48;10.77;;;;;;;20.72;70.69;101250.06;5112597;28;20046;-60
2023/09/16 07:24:32;;;;;;;15.52;11.00;;;;;;;20.91;70.30;101246.94;5111281;28;20039;-60
2023/09/16 07:26:58;;;;;;;13.73;11.00;;;;;;;21.12;70.47;101238.31;5111994;28;20035;-59
2023/09/16 07:29:23;;;;;;;13.35;9.90;;;;;;;21.38;68.93;101251.09;5116334;28;20385;-60
2023/09/16 07:31:49;;;;;;;15.63;10.07;;;;;;;21.52;67.70;101245.31;5115759;28;20056;-59
2023/09/16 07:34:19;;;;;;;14.98;10.13;;;;;;;21.69;67.74;101244.84;5115860;28;20036;-60
2023/09/16 07:36:45;;;;;;;15.25;10.07;;;;;;;21.79;67.38;101248.13;5114615;28;20024;-60
2023/09/16 07:39:10;;;;;;;15.55;10.63;;;;;;;22.00;66.59;101244.81;5115957;28;20027;-60
2023/09/16 07:41:35;;;;;;;14.23;10.15;;;;;;;22.15;66.01;101256.97;5116026;27;20484;-60
2023/09/16 07:44:01;;;;;;;13.98;10.32;;;;;;;22.37;65.27;101251.78;5114354;28;20023;-60
2023/09/16 07:46:26;;;;;;;13.23;9.95;;;;;;;22.48;64.03;101253.22;5115524;27;20063;-60
2023/09/16 07:48:52;;;;;;;16.75;10.52;;;;;;;22.64;63.91;101258.97;5114400;28;20030;-60
2023/09/16 07:51:17;;;;;;;14.60;9.82;;;;;;;22.68;64.00;101262.44;5115760;28;20110;-60
2023/09/16 07:53:42;;;;;;;16.20;9.85;;;;;;;22.58;63.79;101259.19;5115512;28;20030;-61
2023/09/16 07:56:08;;;;;;;13.02;9.68;;;;;;;22.68;64.50;101260.63;5115412;28;20073;-59
2023/09/16 07:58:33;;;;;;;14.50;10.25;;;;;;;22.85;64.25;101253.81;5115771;28;20034;-60
2023/09/16 08:00:59;;;;;;;15.05;9.98;;;;;;;23.07;63.12;101253.97;5115401;28;20028;-59
2023/09/16 08:03:24;;;;;;;19.17;9.95;;;;;;;23.38;63.13;101259.16;5115402;28;20069;-59
2023/09/16 08:05:50;;;;;;;14.07;9.70;;;;;;;23.71;61.15;101257.09;5115243;27;20115;-59
2023/09/16 08:08:16;;;;;;;12.40;9.90;;;;;;;24.01;60.57;101259.56;5115275;28;20045;-60
2023/09/16 08:10:46;;;;;;;12.88;10.13;;;;;;;24.02;59.59;101254.09;5115194;27;20077;-60
2023/09/16 08:13:11;;;;;;;11.70;9.52;;;;;;;24.31;58.66;101252.97;5115198;28;20032;-60
2023/09/16 08:15:37;;;;;;;13.85;9.00;;;;;;;24.60;57.68;101257.25;5115079;28;20024;-60
2023/09/16 08:18:02;;;;;;;14.88;10.15;;;;;;;24.71;57.51;101259.47;5113744;28;20555;-59
2023/09/16 08:20:28;;;;;;;14.60;9.20;;;;;;;24.88;56.86;101262.38;5115065;28;20042;-60
2023/09/16 08:22:55;;;;;;;11.07;9.25;;;;;;;24.88;56.38;101267.78;5115207;28;20028;-59
2023/09/16 08:25:21;;;;;;;12.77;9.48;;;;;;;24.95;56.71;101260.28;5114812;28;20035;-60
2023/09/16 08:27:46;;;;;;;16.33;9.95;;;;;;;24.97;56.72;101262.00;5115033;28;20034;-60
2023/09/16 08:30:12;;;;;;;11.55;9.38;;;;;;;25.19;56.03;101263.81;5114582;28;20454;-60
2023/09/16 08:32:38;;;;;;;15.38;9.00;;;;;;;25.30;55.93;101271.44;5114918;28;20038;-59
2023/09/16 08:35:05;;;;;;;11.95;9.27;;;;;;;25.46;55.34;101264.41;5114657;28;20032;-59
2023/09/16 08:37:30;;;;;;;10.77;8.85;;;;;;;25.54;55.13;101273.06;5114561;28;20138;-60
2023/09/16 08:39:56;;;;;;;12.27;9.07;;;;;;;25.70;54.11;101271.44;5113097;28;20146;-60
2023/09/16 08:42:35;;;;;;;16.58;9.55;;;;;;;25.93;54.04;101281.22;5113552;28;20035;-60
2023/09/16 08:45:04;;;;;;;13.30;9.35;;;;;;;26.14;53.34;101276.63;5114208;28;20042;-61
2023/09/16 08:47:54;;;;;;;12.65;9.43;;;;;;;26.37;53.33;101275.53;5114464;28;20031;-59
2023/09/16 08:50:22;;;;;;;12.75;9.32;;;;;;;26.44;51.51;101276.16;5114373;28;20468;-60
2023/09/16 08:52:47;;;;;;;11.27;8.88;;;;;;;26.55;51.86;101284.66;5114217;28;20024;-58
2023/09/16 08:55:13;;;;;;;13.10;8.77;;;;;;;26.71;51.70;101282.03;5114215;28;20388;-60
2023/09/16 08:57:52;;;;;;;10.75;8.65;;;;;;;27.14;51.42;101288.03;5114353;28;20019;-59
2023/09/16 09:00:18;;;;;;;9.65;8.30;;;;;;;27.18;50.29;101287.81;5114371;27;20047;-61
2023/09/16 09:02:45;;;;;;;13.65;9.00;;;;;;;27.33;48.98;101285.28;5114346;28;20055;-59
2023/09/16 09:05:12;;;;;;;13.65;8.60;;;;;;;27.37;49.48;101287.75;5114288;28;20032;-60
2023/09/16 09:07:40;;;;;;;10.32;8.57;;;;;;;27.62;48.49;101290.06;5114131;28;20020;-60
2023/09/16 09:10:06;;;;;;;16.38;8.75;;;;;;;27.68;48.49;101283.41;5112564;28;20047;-60
2023/09/16 09:12:35;;;;;;;12.35;8.32;;;;;;;27.88;49.68;101276.91;5113994;27;20023;-60
2023/09/16 09:15:06;;;;;;;11.80;8.63;;;;;;;28.19;47.31;101276.09;5113627;28;20023;-60
2023/09/16 09:17:37;;;;;;;10.27;8.25;;;;;;;28.38;47.33;101276.84;5114102;28;20426;-58
2023/09/16 09:20:05;;;;;;;11.35;8.18;;;;;;;28.59;47.05;101285.59;5114022;28;20028;-60
2023/09/16 09:22:32;;;;;;;10.65;8.45;;;;;;;28.81;46.29;101289.81;5113672;28;20031;-61
2023/09/16 09:24:58;;;;;;;13.85;8.25;;;;;;;29.12;45.60;101289.78;5113589;28;20034;-60
2023/09/16 09:27:23;;;;;;;12.48;8.75;;;;;;;29.27;45.01;101293.41;5113841;28;20028;-60
2023/09/16 09:29:48;;;;;;;11.88;7.63;;;;;;;29.41;44.94;101279.84;5113439;28;20067;-60
2023/09/16 09:32:14;;;;;;;11.75;7.93;;;;;;;29.66;44.69;101292.84;5113547;28;20032;-61
2023/09/16 09:34:39;;;;;;;10.70;8.48;;;;;;;29.51;42.42;101288.34;5113728;28;20114;-61
2023/09/16 09:37:16;;;;;;;10.45;7.82;;;;;;;29.71;44.09;101295.28;5113352;28;20479;-60
2023/09/16 09:39:42;;;;;;;11.85;8.48;;;;;;;29.90;42.63;101295.91;5113732;28;20080;-61
2023/09/16 09:42:07;;;;;;;10.48;8.82;;;;;;;29.82;42.86;101294.63;5113321;28;20385;-60
2023/09/16 09:44:34;;;;;;;10.90;8.43;;;;;;;29.93;42.05;101298.41;5113405;28;20061;-60
2023/09/16 09:47:00;;;;;;;12.52;8.90;;;;;;;29.88;42.49;101310.56;5113211;28;20126;-60
2023/09/16 09:49:26;;;;;;;10.07;8.00;;;;;;;29.95;41.31;101303.78;5113365;28;20041;-60
2023/09/16 09:51:52;;;;;;;13.32;8.85;;;;;;;29.81;43.14;101304.66;5112984;28;20536;-60
2023/09/16 09:54:18;;;;;;;14.57;8.88;;;;;;;29.57;43.41;101300.72;5113025;28;20030;-61
2023/09/16 09:56:44;;;;;;;12.02;8.45;;;;;;;29.63;42.57;101300.31;5113176;28;20037;-60
2023/09/16 09:59:09;;;;;;;16.02;8.60;;;;;;;29.49;43.76;101305.72;5113067;28;20393;-60
2023/09/16 10:01:35;;;;;;;9.65;8.10;;;;;;;29.85;43.11;101297.13;5113125;28;20026;-61
2023/09/16 10:04:03;;;;;;;14.30;8.85;;;;;;;30.07;42.57;101294.81;5113191;28;20384;-60
2023/09/16 10:06:29;;;;;;;14.55;10.18;;;;;;;30.03;43.04;101292.41;5113168;28;20102;-59
2023/09/16 10:08:54;;;;;;;13.93;9.18;;;;;;;30.44;42.25;101287.88;5112129;28;20516;-60
2023/09/16 10:11:21;;;;;;;14.48;9.57;;;;;;;30.49;41.45;101289.44;5112775;28;20465;-60
2023/09/16 10:13:48;;;;;;;11.50;9.20;;;;;;;30.65;42.01;101282.00;5112509;28;20410;-60
2023/09/16 10:16:13;;;;;;;13.02;8.32;;;;;;;30.95;42.39;101283.66;5112208;28;20028;-59
2023/09/16 10:18:39;;;;;;;13.90;8.43;;;;;;;30.65;42.04;101279.25;5112406;28;20031;-60
2023/09/16 10:21:07;;;;;;;12.57;8.68;;;;;;;30.96;41.18;101282.69;5112385;28;20019;-61
2023/09/16 10:23:33;;;;;;;12.90;8.55;;;;;;;31.08;41.13;101287.31;5112979;28;20027;-60
2023/09/16 10:25:58;;;;;;;11.90;8.65;;;;;;;31.18;39.18;101288.44;5111575;28;20035;-60
2023/09/16 10:28:25;;;;;;;14.80;9.55;;;;;;;31.61;39.17;101282.75;5113148;28;20496;-60
2023/09/16 10:30:51;;;;;;;13.27;9.18;;;;;;;31.47;38.78;101291.03;5112427;28;20035;-60
2023/09/16 10:33:18;;;;;;;11.63;8.40;;;;;;;31.81;39.42;101281.31;5112961;28;20538;-60
2023/09/16 10:35:43;;;;;;;14.82;9.68;;;;;;;31.68;39.76;101273.13;5112565;28;20080;-60
2023/09/16 10:38:11;;;;;;;13.32;9.80;;;;;;;31.89;38.06;101277.09;5111499;28;20031;-60
2023/09/16 10:40:37;;;;;;;12.50;9.48;;;;;;;31.56;39.17;101279.44;5112655;28;20062;-60
2023/09/16 10:43:04;;;;;;;13.48;8.85;;;;;;;31.70;39.36;101273.03;5112785;28;20016;-61
2023/09/16 10:45:31;;;;;;;13.05;8.65;;;;;;;31.90;39.98;101273.34;5112459;28;20027;-60
2023/09/16 10:47:59;;;;;;;13.90;9.00;;;;;;;31.81;39.22;101264.91;5112653;28;20481;-59
2023/09/16 10:50:29;;;;;;;10.95;9.20;;;;;;;31.60;39.10;101273.66;5112908;28;20101;-59
2023/09/16 10:53:21;;;;;;;13.02;10.60;;;;;;;31.67;39.66;101269.50;5112508;28;20036;-59
2023/09/16 10:55:55;;;;;;;;;;;;;;;31.79;41.03;101267.78;5113043;28;20092;-60
2023/09/16 10:58:36;;;;;;;13.27;8.98;;;;;;;31.81;40.33;101267.66;5112478;28;19919;-61
2023/09/16 11:01:02;;;;;;;11.00;8.88;;;;;;;31.74;40.45;101258.16;5112741;28;20027;-59
2023/09/16 11:03:31;;;;;;;12.85;10.32;;;;;;;31.62;40.33;101255.31;5115447;28;20029;-60
2023/09/16 11:05:58;;;;;;;14.50;9.73;;;;;;;31.67;39.54;101258.59;5115346;28;20062;-59
2023/09/16 11:08:25;;;;;;;13.02;9.85;;;;;;;31.94;39.39;101256.75;5116566;28;20019;-60
2023/09/16 11:10:52;;;;;;;11.20;9.25;;;;;;;32.06;39.54;101255.84;5116333;28;20115;-60
2023/09/16 11:13:19;;;;;;;14.20;9.30;;;;;;;32.15;39.48;101255.16;5116508;28;20136;-60
2023/09/16 11:15:46;;;;;;;11.80;8.98;;;;;;;32.48;38.01;101245.50;5116135;28;20077;-60